BKDO2: Broken Bow Lake

Data processed at Sun Jul 15 2018 23:08


All information presented herein is the property of the government of the United States of America and may be revised or deleted at any time without prior notice.
Dissemination of this information without the expressed written consent of the Public Affairs Office, Tulsa District U.S. Army Corps of Engineers is strictly prohibited.
These data are gathered electronically and, as presented, have not undergone any form of quality control. These data are not guaranteed to be valid or correct.
Go to home page.
Go to station list.

Upstream stations:

Downstream station:
Previous Day
Next Day
Current Day
    
SHEF ID:       BKDO2     Broken Bow Lake
STATION TYPE:  RESERVOIR
Normal Pool:  Bottom =   559.00, Top =   602.50

               PRECIP ELEVATION   STORAGE   TW-ELEV    INFLOW   RELEASE  AIR-TEMP  WIND-DIRWIND-SPEED REL-HUMID SOLAR-RAD   VOLTAGE  BAT-LOAD
                   in        ft     ac-ft        ft       cfs       cfs         F       deg       mph         %      W/m2      volt      volt
              Ccp-Rev   Ccp-Rev   Ccp-Rev   Ccp-Rev  Regi-Rev  Regi-Rev   Ccp-Rev   Ccp-Rev   Ccp-Rev   Ccp-Rev   Ccp-Rev   Ccp-Rev   Ccp-Rev
(US/Central)
07/15 00:00      0.00    595.05    854550    401.20      -901      -901     78.12    158.10      1.62     72.88      0.00     13.07     12.71
07/15 01:00      0.00    595.05    854550    401.20      -901      -901     75.81    180.40      1.05     77.89      1.00     13.06     12.71
07/15 02:00      0.00    595.05    854550    401.20      -901      -901     74.61    167.30      1.27     83.20      1.00     13.03     12.65
07/15 03:00      0.00    595.05    854550    401.20      -901      -901     75.25    159.70      0.95     82.35      0.00     13.02     12.65
07/15 04:00      0.00    595.05    854550    401.20      -901      -901     74.05    161.20      1.15     83.51      0.00     13.01     12.65
07/15 05:00      0.00    595.05    854550    401.20      -901      -901     75.92    163.70      0.81     79.54      1.00     13.00     12.65
07/15 06:00      0.00    595.05    854550    401.21      -901      -901     74.93    140.10      0.65     83.99      0.00     12.98     12.65
07/15 07:00      0.00    595.05    854550    401.20      -901      -901     73.17    144.10      1.27     88.57     12.00     12.96     12.60
07/15 08:00      0.00    595.05    854550    401.20      -901      -901     79.32    143.80      0.71     71.42    174.00     12.97     12.60
07/15 09:00      0.00    595.04    854420    401.20      -901      -901     83.84    172.30      0.56     68.12    376.00     12.99     12.60
07/15 10:00      0.00    595.04    854420    401.20      -901      -901     86.47    176.90      1.13     61.90    548.00     13.16     12.60
07/15 11:00      0.00    595.04    854420    401.20      -901      -901     89.78    210.90      0.18     56.47    698.00     13.21     12.77
07/15 12:00      0.00    595.05    854550    401.20      -901      -901     92.30    188.80      1.17     48.90    806.00     13.44     12.83
07/15 13:00      0.00    595.04    854420    401.21      -901      -901     94.71    182.20      1.92     41.88    894.00     14.23     13.00
07/15 14:00      0.00    595.01    854030    402.08      -901      -901     95.59    183.50      1.84     38.88    696.00     13.63     13.59
07/15 15:00      0.00    595.01    854030    403.90      -901      -901     96.35    183.30      2.64     36.38    804.00     14.02     13.30
07/15 16:00      0.00    594.99    853771    403.83      -901      -901     97.36    189.90      2.35     34.19    749.00     13.79     13.48
07/15 17:00      0.00    594.99    853771    403.10      -901      -901     97.23    176.80      2.48     33.57    503.00     13.50     13.36
07/15 18:00      0.00    594.98    853642    401.19      -901      -901     96.80    177.00      2.64     34.18    334.00     13.35     13.12
07/15 19:00      0.00    594.97    853513    401.19      -901      -901     95.36    177.90      3.03     35.53     54.00     13.20     13.00
07/15 20:00      0.00    594.97    853513    401.19      -901      -901     92.95    186.20      2.08     39.68     25.00     13.14     12.83
07/15 21:00      0.00    594.97    853513    401.20      -901      -901     89.11    157.20      0.19     46.15      1.00     13.13     12.77
07/15 22:00      0.00    594.97    853513    401.20      -901      -901     85.91    189.20      0.52     53.23      0.00     13.10     12.77
07/15 23:00      ----      ----      ----      ----      ----      ----      ----      ----      ----      ----      ----      ----      ----